createdAt,value
2017-12-25T00:00:49.739Z,8.70
2017-12-25T00:03:51.032Z,8.70
2017-12-25T00:06:53.031Z,8.70
2017-12-25T00:09:54.312Z,8.70
2017-12-25T00:12:56.445Z,8.70
2017-12-25T00:15:57.810Z,8.70
2017-12-25T00:18:59.152Z,8.70
2017-12-25T00:22:00.431Z,8.60
2017-12-25T00:25:01.993Z,8.50
2017-12-25T00:28:03.275Z,8.50
2017-12-25T00:31:04.649Z,8.50
2017-12-25T00:34:05.931Z,8.60
2017-12-25T00:37:07.271Z,8.50
2017-12-25T00:40:08.497Z,8.50
2017-12-25T00:43:09.885Z,8.50
2017-12-25T00:46:11.142Z,8.50
2017-12-25T00:49:12.826Z,8.60
2017-12-25T00:52:14.089Z,8.60
2017-12-25T00:55:15.596Z,8.70
2017-12-25T00:58:16.832Z,8.90
2017-12-25T01:01:18.178Z,8.70
2017-12-25T01:04:19.476Z,8.60
2017-12-25T01:07:20.700Z,8.60
2017-12-25T01:10:22.680Z,8.50
2017-12-25T01:13:24.015Z,8.50
2017-12-25T01:16:25.997Z,8.50
2017-12-25T01:19:27.283Z,8.50
2017-12-25T01:22:28.568Z,8.50
2017-12-25T01:25:29.841Z,8.50
2017-12-25T01:28:31.830Z,8.50
2017-12-25T01:31:33.080Z,8.50
2017-12-25T01:34:34.359Z,8.50
2017-12-25T01:37:35.593Z,8.40
2017-12-25T01:40:36.872Z,8.40
2017-12-25T01:43:38.156Z,8.50
2017-12-25T01:46:39.424Z,8.40
2017-12-25T01:49:40.710Z,8.50
2017-12-25T01:52:42.016Z,8.50
2017-12-25T01:55:43.332Z,8.50
2017-12-25T01:58:52.178Z,8.50
2017-12-25T02:01:56.364Z,8.50
2017-12-25T02:04:59.435Z,8.50
2017-12-25T02:08:04.549Z,8.50
2017-12-25T02:11:05.787Z,8.40
2017-12-25T02:14:07.120Z,8.40
2017-12-25T02:17:08.377Z,8.30
2017-12-25T02:20:09.630Z,8.30
2017-12-25T02:23:10.888Z,8.30
2017-12-25T02:26:12.218Z,8.30
2017-12-25T02:29:13.516Z,8.30
2017-12-25T02:32:14.762Z,8.20
2017-12-25T02:35:16.064Z,8.30
2017-12-25T02:38:17.332Z,8.20
2017-12-25T02:41:18.615Z,8.30
2017-12-25T02:44:19.895Z,8.30
2017-12-25T02:47:21.886Z,8.20
2017-12-25T02:50:23.314Z,8.20
2017-12-25T02:53:24.571Z,8.30
2017-12-25T02:56:25.877Z,8.20
2017-12-25T02:59:27.137Z,8.20
2017-12-25T03:02:28.383Z,8.20
2017-12-25T03:05:29.633Z,8.20
2017-12-25T03:08:31.652Z,8.20
2017-12-25T03:11:32.885Z,8.20
2017-12-25T03:14:34.176Z,8.20
2017-12-25T03:17:35.443Z,8.10
2017-12-25T03:20:37.540Z,8.20
2017-12-25T03:23:38.824Z,8.20
2017-12-25T03:26:46.988Z,8.20
2017-12-25T03:29:49.000Z,8.10
2017-12-25T03:32:50.526Z,8.10
2017-12-25T03:35:51.828Z,8.20
2017-12-25T03:38:53.124Z,8.20
2017-12-25T03:41:54.417Z,8.20
2017-12-25T03:44:55.693Z,8.10
2017-12-25T03:47:57.641Z,8.20
2017-12-25T03:50:58.921Z,8.20
2017-12-25T03:54:00.196Z,8.20
2017-12-25T03:57:01.445Z,8.10
2017-12-25T04:00:02.780Z,8.10
2017-12-25T04:03:04.036Z,8.10
2017-12-25T04:06:05.280Z,8.20
2017-12-25T04:09:06.545Z,8.20
2017-12-25T04:12:07.819Z,8.20
2017-12-25T04:15:09.065Z,8.10
2017-12-25T04:18:10.351Z,8.10
2017-12-25T04:21:12.330Z,8.20
2017-12-25T04:24:13.593Z,8.20
2017-12-25T04:27:14.850Z,8.30
2017-12-25T04:30:16.148Z,8.30
2017-12-25T04:33:18.192Z,8.30
2017-12-25T04:36:19.457Z,8.30
2017-12-25T04:39:28.512Z,8.30
2017-12-25T04:42:29.744Z,8.20
2017-12-25T04:45:31.868Z,8.30
2017-12-25T04:48:33.126Z,8.20
2017-12-25T04:51:34.420Z,8.30
2017-12-25T04:54:36.442Z,8.30
2017-12-25T04:57:37.664Z,8.30
2017-12-25T05:00:38.945Z,8.30
2017-12-25T05:03:40.250Z,8.30
2017-12-25T05:06:41.520Z,8.10
2017-12-25T05:09:42.781Z,8.20
2017-12-25T05:12:44.020Z,8.20
2017-12-25T05:15:45.284Z,8.20
2017-12-25T05:18:46.569Z,8.30
2017-12-25T05:21:48.533Z,8.30
2017-12-25T05:24:50.586Z,8.30
2017-12-25T05:27:52.621Z,8.30
2017-12-25T05:30:53.864Z,8.30
2017-12-25T05:33:55.158Z,8.30
2017-12-25T05:36:57.164Z,8.30
2017-12-25T05:39:58.433Z,8.30
2017-12-25T05:42:59.727Z,8.30
2017-12-25T05:46:01.693Z,8.30
2017-12-25T05:49:03.026Z,8.30
2017-12-25T05:52:05.005Z,8.30
2017-12-25T05:55:06.292Z,8.20
2017-12-25T05:58:07.556Z,8.30
2017-12-25T06:01:08.806Z,8.30
2017-12-25T06:04:10.105Z,8.30
2017-12-25T06:07:11.384Z,8.30
2017-12-25T06:10:12.649Z,8.20
2017-12-25T06:13:13.905Z,8.30
2017-12-25T06:16:15.172Z,8.20
2017-12-25T06:19:17.220Z,8.30
2017-12-25T06:22:18.480Z,8.30
2017-12-25T06:25:19.794Z,8.30
2017-12-25T06:28:21.091Z,8.30
2017-12-25T06:31:23.080Z,8.40
2017-12-25T06:34:24.328Z,8.30
2017-12-25T06:37:25.572Z,8.30
2017-12-25T06:40:26.860Z,8.30
2017-12-25T06:43:28.135Z,8.30
2017-12-25T06:46:29.384Z,8.30
2017-12-25T06:49:30.630Z,8.40
2017-12-25T06:52:31.877Z,8.30
2017-12-25T06:55:33.137Z,8.40
2017-12-25T06:58:35.146Z,8.40
2017-12-25T07:01:36.477Z,8.40
2017-12-25T07:04:37.725Z,8.40
2017-12-25T07:07:39.045Z,8.40
2017-12-25T07:10:40.346Z,8.40
2017-12-25T07:13:41.568Z,8.30
2017-12-25T07:16:42.825Z,8.40
2017-12-25T07:19:44.038Z,8.50
2017-12-25T07:22:46.053Z,8.50
2017-12-25T07:25:47.364Z,8.40
2017-12-25T07:28:49.400Z,8.40
2017-12-25T07:31:50.700Z,8.40
2017-12-25T07:34:51.929Z,8.40
2017-12-25T07:37:53.964Z,8.40
2017-12-25T07:40:55.230Z,8.30
2017-12-25T07:43:56.485Z,8.40
2017-12-25T07:46:58.485Z,8.40
2017-12-25T07:49:59.771Z,8.40
2017-12-25T07:53:01.054Z,8.40
2017-12-25T07:56:03.086Z,8.50
2017-12-25T07:59:04.371Z,8.40
2017-12-25T08:02:05.640Z,8.50
2017-12-25T08:05:06.912Z,8.50
2017-12-25T08:08:08.937Z,8.50
2017-12-25T08:11:10.281Z,8.50
2017-12-25T08:14:12.292Z,8.60
2017-12-25T08:17:13.561Z,8.60
2017-12-25T08:20:14.818Z,8.70
2017-12-25T08:23:16.108Z,8.70
2017-12-25T08:26:17.397Z,8.70
2017-12-25T08:29:18.666Z,8.60
2017-12-25T08:32:19.938Z,8.60
2017-12-25T08:35:21.924Z,8.60
2017-12-25T08:38:23.278Z,8.60
2017-12-25T08:41:24.521Z,8.50
2017-12-25T08:44:25.808Z,8.50
2017-12-25T08:47:27.057Z,8.60
2017-12-25T08:50:28.289Z,8.50
2017-12-25T08:53:29.560Z,8.50
2017-12-25T08:56:30.821Z,8.50
2017-12-25T08:59:32.100Z,8.50
2017-12-25T09:02:33.376Z,8.50
2017-12-25T09:05:34.614Z,8.50
2017-12-25T09:08:35.865Z,8.60
2017-12-25T09:11:37.094Z,8.60
2017-12-25T09:14:38.368Z,8.60
2017-12-25T09:17:39.639Z,8.50
2017-12-25T09:20:40.936Z,8.50
2017-12-25T09:23:42.171Z,8.50
2017-12-25T09:26:44.244Z,8.50
2017-12-25T09:29:46.229Z,8.60
2017-12-25T09:32:47.474Z,8.50
2017-12-25T09:35:48.802Z,8.50
2017-12-25T09:38:50.068Z,8.60
2017-12-25T09:41:51.347Z,8.60
2017-12-25T09:44:52.565Z,8.60
2017-12-25T09:47:53.828Z,8.60
2017-12-25T09:50:55.059Z,8.50
2017-12-25T09:53:56.315Z,8.50
2017-12-25T09:56:57.759Z,8.40
2017-12-25T09:59:59.097Z,8.30
2017-12-25T10:03:00.357Z,8.40
2017-12-25T10:06:01.691Z,8.40
2017-12-25T10:09:04.073Z,8.40
2017-12-25T10:12:05.560Z,8.30
2017-12-25T10:15:06.841Z,8.30
2017-12-25T10:18:08.098Z,8.40
2017-12-25T10:21:10.121Z,8.30
2017-12-25T10:24:11.457Z,8.30
2017-12-25T10:27:12.805Z,8.30
2017-12-25T10:30:14.073Z,8.40
2017-12-25T10:33:15.315Z,8.30
2017-12-25T10:36:16.626Z,8.30
2017-12-25T10:39:18.736Z,8.40
2017-12-25T10:42:20.206Z,8.40
2017-12-25T10:45:21.467Z,8.40
2017-12-25T10:48:22.806Z,8.40
2017-12-25T10:51:24.105Z,8.50
2017-12-25T10:54:25.557Z,8.50
2017-12-25T10:57:27.159Z,8.40
2017-12-25T11:00:34.809Z,8.50
2017-12-25T11:03:36.781Z,8.40
2017-12-25T11:06:38.213Z,8.40
2017-12-25T11:09:40.206Z,8.40
2017-12-25T11:12:41.546Z,8.40
2017-12-25T11:15:42.829Z,8.40
2017-12-25T11:18:45.497Z,8.40
2017-12-25T11:21:47.624Z,8.60
2017-12-25T11:24:49.099Z,8.50
2017-12-25T11:27:50.586Z,8.60
2017-12-25T11:30:51.896Z,8.60
2017-12-25T11:33:53.145Z,8.60
2017-12-25T11:36:54.565Z,8.70
2017-12-25T11:39:55.826Z,8.70
2017-12-25T11:42:57.782Z,8.80
2017-12-25T11:45:59.894Z,8.70
2017-12-25T11:49:01.162Z,8.70
2017-12-25T11:52:02.461Z,8.80
2017-12-25T11:55:04.424Z,8.80
2017-12-25T11:58:06.434Z,8.70
2017-12-25T12:01:07.662Z,8.70
2017-12-25T12:04:08.962Z,8.60
2017-12-25T12:07:10.217Z,8.70
2017-12-25T12:10:11.537Z,8.70
2017-12-25T12:13:12.835Z,8.70
2017-12-25T12:16:14.072Z,8.70
2017-12-25T12:19:16.061Z,8.60
2017-12-25T12:22:17.433Z,8.60
2017-12-25T12:25:19.477Z,8.70
2017-12-25T12:28:21.460Z,8.70
2017-12-25T12:31:22.709Z,8.70
2017-12-25T12:34:23.992Z,8.70
2017-12-25T12:37:25.237Z,8.60
2017-12-25T12:40:26.504Z,8.50
2017-12-25T12:43:27.792Z,8.50
2017-12-25T12:46:29.056Z,8.50
2017-12-25T12:49:30.296Z,8.50
2017-12-25T12:52:31.560Z,8.50
2017-12-25T12:55:33.519Z,8.60
2017-12-25T12:58:34.800Z,8.60
2017-12-25T13:01:36.044Z,8.60
2017-12-25T13:04:37.332Z,8.80
2017-12-25T13:07:39.840Z,8.60
2017-12-25T13:10:41.110Z,8.60
2017-12-25T13:13:42.428Z,8.70
2017-12-25T13:16:43.728Z,8.70
2017-12-25T13:19:45.001Z,8.70
2017-12-25T13:22:47.060Z,8.60
2017-12-25T13:25:49.105Z,8.60
2017-12-25T13:28:50.543Z,8.60
2017-12-25T13:31:51.801Z,8.60
2017-12-25T13:34:53.102Z,8.70
2017-12-25T13:37:54.373Z,8.80
2017-12-25T13:40:55.659Z,8.80
2017-12-25T13:43:56.899Z,8.80
2017-12-25T13:46:58.186Z,8.80
2017-12-25T13:49:59.461Z,8.70
2017-12-25T13:53:00.716Z,8.60
2017-12-25T13:56:01.949Z,8.50
2017-12-25T13:59:03.288Z,8.60
2017-12-25T14:02:04.516Z,8.60
2017-12-25T14:05:06.529Z,8.50
2017-12-25T14:08:07.801Z,8.50
2017-12-25T14:11:09.056Z,8.60
2017-12-25T14:14:10.350Z,8.60
2017-12-25T14:17:11.619Z,8.50
2017-12-25T14:20:19.836Z,8.50
2017-12-25T14:23:21.111Z,8.60
2017-12-25T14:26:22.376Z,8.50
2017-12-25T14:29:23.621Z,8.50
2017-12-25T14:32:24.855Z,8.50
2017-12-25T14:35:26.135Z,8.60
2017-12-25T14:38:28.102Z,8.50
2017-12-25T14:41:30.110Z,9.40
2017-12-25T14:44:31.353Z,9.40
2017-12-25T14:47:32.597Z,9.00
2017-12-25T14:50:33.822Z,8.80
2017-12-25T14:53:35.092Z,8.70
2017-12-25T14:56:36.359Z,8.60
2017-12-25T14:59:37.619Z,8.60
2017-12-25T15:02:38.911Z,8.60
2017-12-25T15:05:40.173Z,8.50
2017-12-25T15:08:41.421Z,8.50
2017-12-25T15:11:42.657Z,8.50
2017-12-25T15:14:43.924Z,8.50
2017-12-25T15:17:45.229Z,8.70
2017-12-25T15:20:47.275Z,8.70
2017-12-25T15:23:48.792Z,8.70
2017-12-25T15:26:50.213Z,8.70
2017-12-25T15:29:52.353Z,8.40
2017-12-25T15:32:53.603Z,8.40
2017-12-25T15:35:54.994Z,8.40
2017-12-25T15:38:56.240Z,8.40
2017-12-25T15:41:57.512Z,8.40
2017-12-25T15:44:58.740Z,8.30
2017-12-25T15:47:59.976Z,8.40
2017-12-25T15:51:02.182Z,8.60
2017-12-25T15:54:03.537Z,8.60
2017-12-25T15:57:05.305Z,8.70
2017-12-25T16:00:06.606Z,8.70
2017-12-25T16:03:08.668Z,8.40
2017-12-25T16:06:10.666Z,8.30
2017-12-25T16:09:11.949Z,8.30
2017-12-25T16:12:13.301Z,8.30
2017-12-25T16:15:15.494Z,8.40
2017-12-25T16:18:16.769Z,8.40
2017-12-25T16:21:18.062Z,8.40
2017-12-25T16:24:19.587Z,8.40
2017-12-25T16:27:20.873Z,8.40
2017-12-25T16:30:22.157Z,8.40
2017-12-25T16:33:24.159Z,8.50
2017-12-25T16:36:25.537Z,8.50
2017-12-25T16:39:26.784Z,8.50
2017-12-25T16:42:28.054Z,8.40
2017-12-25T16:45:30.140Z,8.30
2017-12-25T16:48:31.444Z,8.20
2017-12-25T16:51:32.725Z,8.20
2017-12-25T16:54:34.799Z,8.30
2017-12-25T16:57:36.776Z,8.10
2017-12-25T17:00:38.040Z,8.10
2017-12-25T17:03:39.473Z,8.10
2017-12-25T17:06:40.858Z,8.10
2017-12-25T17:09:42.131Z,8.20
2017-12-25T17:12:43.385Z,8.00
2017-12-25T17:15:44.625Z,8.00
2017-12-25T17:18:45.899Z,8.00
2017-12-25T17:21:47.130Z,8.10
2017-12-25T17:24:48.372Z,8.10
2017-12-25T17:27:50.450Z,8.10
2017-12-25T17:30:52.462Z,8.10
2017-12-25T17:33:54.548Z,8.10
2017-12-25T17:36:55.828Z,8.00
2017-12-25T17:39:57.068Z,9.70
2017-12-25T17:42:58.678Z,14.50
2017-12-25T17:46:00.047Z,12.20
2017-12-25T17:49:02.090Z,9.40
2017-12-25T17:52:03.376Z,9.30
2017-12-25T17:55:04.654Z,8.70
2017-12-25T17:58:06.039Z,8.40
2017-12-25T18:01:07.367Z,8.20
2017-12-25T18:04:09.351Z,8.30
2017-12-25T18:07:10.711Z,8.40
2017-12-25T18:10:12.069Z,8.20
2017-12-25T18:13:13.293Z,8.30
2017-12-25T18:16:14.621Z,7.90
2017-12-25T18:19:16.720Z,7.60
2017-12-25T18:22:18.169Z,7.60
2017-12-25T18:25:19.426Z,7.40
2017-12-25T18:28:20.733Z,7.70
2017-12-25T18:31:21.977Z,7.70
2017-12-25T18:34:23.223Z,7.80
2017-12-25T18:37:24.524Z,7.90
2017-12-25T18:40:25.761Z,8.00
2017-12-25T18:43:27.040Z,8.50
2017-12-25T18:46:28.273Z,8.00
2017-12-25T18:49:29.561Z,7.70
2017-12-25T18:52:30.808Z,7.60
2017-12-25T18:55:32.053Z,7.60
2017-12-25T18:58:33.276Z,7.50
2017-12-25T19:01:34.556Z,7.30
2017-12-25T19:04:35.809Z,7.40
2017-12-25T19:07:37.101Z,7.30
2017-12-25T19:10:38.322Z,7.20
2017-12-25T19:13:40.336Z,7.10
2017-12-25T19:16:41.651Z,7.10
2017-12-25T19:19:42.900Z,7.30
2017-12-25T19:22:44.137Z,7.20
2017-12-25T19:25:45.398Z,7.00
2017-12-25T19:28:46.688Z,13.40
2017-12-25T19:31:47.944Z,12.20
2017-12-25T19:34:49.193Z,9.60
2017-12-25T19:37:50.457Z,8.20
2017-12-25T19:40:52.456Z,7.40
2017-12-25T19:43:53.699Z,7.50
2017-12-25T19:46:54.956Z,7.70
2017-12-25T19:49:56.220Z,7.30
2017-12-25T19:52:57.445Z,7.10
2017-12-25T19:55:58.687Z,7.00
2017-12-25T19:58:59.893Z,6.90
2017-12-25T20:02:01.170Z,6.90
2017-12-25T20:05:03.201Z,6.60
2017-12-25T20:08:04.508Z,6.60
2017-12-25T20:11:05.756Z,6.70
2017-12-25T20:14:07.009Z,6.60
2017-12-25T20:17:08.232Z,6.70
2017-12-25T20:20:10.228Z,6.60
2017-12-25T20:23:11.492Z,6.60
2017-12-25T20:26:12.724Z,6.60
2017-12-25T20:29:13.986Z,6.50
2017-12-25T20:32:15.204Z,6.50
2017-12-25T20:35:16.472Z,6.50
2017-12-25T20:38:17.698Z,6.50
2017-12-25T20:41:18.959Z,6.40
2017-12-25T20:44:20.236Z,6.40
2017-12-25T20:47:21.486Z,6.40
2017-12-25T20:50:22.705Z,6.40
2017-12-25T20:53:23.966Z,6.90
2017-12-25T20:56:25.244Z,6.90
2017-12-25T20:59:26.617Z,6.80
2017-12-25T21:02:28.621Z,6.60
2017-12-25T21:05:29.940Z,6.60
2017-12-25T21:08:31.266Z,6.50
2017-12-25T21:11:32.489Z,6.50
2017-12-25T21:14:33.741Z,6.50
2017-12-25T21:17:34.971Z,6.60
2017-12-25T21:20:36.231Z,6.50
2017-12-25T21:23:37.464Z,6.40
2017-12-25T21:26:38.776Z,6.30
2017-12-25T21:29:40.110Z,6.40
2017-12-25T21:32:42.108Z,6.10
2017-12-25T21:35:43.388Z,6.10
2017-12-25T21:38:44.602Z,6.10
2017-12-25T21:41:45.872Z,6.10
2017-12-25T21:44:47.122Z,6.10
2017-12-25T21:47:48.408Z,6.10
2017-12-25T21:50:49.626Z,6.10
2017-12-25T21:53:50.922Z,6.10
2017-12-25T21:56:52.172Z,6.00
2017-12-25T21:59:53.421Z,6.10
2017-12-25T22:02:55.436Z,6.20
2017-12-25T22:05:56.733Z,6.10
2017-12-25T22:08:58.759Z,6.10
2017-12-25T22:11:59.981Z,6.10
2017-12-25T22:15:01.259Z,6.10
2017-12-25T22:18:02.590Z,6.00
2017-12-25T22:21:03.848Z,6.10
2017-12-25T22:24:05.101Z,5.90
2017-12-25T22:27:06.314Z,5.90
2017-12-25T22:30:07.578Z,5.90
2017-12-25T22:33:08.824Z,5.90
2017-12-25T22:36:10.062Z,6.00
2017-12-25T22:39:11.320Z,5.90
2017-12-25T22:42:12.601Z,6.10
2017-12-25T22:45:13.880Z,5.90
2017-12-25T22:48:15.135Z,5.90
2017-12-25T22:51:16.408Z,5.90
2017-12-25T22:54:17.704Z,5.90
2017-12-25T22:57:19.051Z,5.80
2017-12-25T23:00:21.069Z,6.00
2017-12-25T23:03:22.329Z,5.90
2017-12-25T23:06:23.584Z,5.90
2017-12-25T23:09:24.834Z,5.90
2017-12-25T23:12:26.130Z,10.00
2017-12-25T23:15:28.093Z,8.20
2017-12-25T23:18:30.164Z,7.40
2017-12-25T23:21:32.153Z,6.80
2017-12-25T23:24:33.414Z,6.80
2017-12-25T23:27:34.716Z,6.30
2017-12-25T23:30:36.718Z,6.10
2017-12-25T23:33:38.016Z,6.10
2017-12-25T23:36:39.424Z,6.00
2017-12-25T23:39:40.684Z,5.80
2017-12-25T23:42:41.953Z,5.70
2017-12-25T23:45:43.502Z,5.70
2017-12-25T23:48:44.898Z,5.80
2017-12-25T23:51:46.975Z,5.70
2017-12-25T23:54:48.295Z,5.60
2017-12-25T23:57:49.692Z,5.60
